Time;durP1;ratioP1;P1;durP2;ratioP2;P2;SDS_P1;SDS_P2;PMS_P1;PMS_P2;Temp;Humidity;BMP_temperature;BMP_pressure;BME280_temperature;BME280_humidity;BME280_pressure;Samples;Min_cycle;Max_cycle;Signal;HPM_P1;HPM_P2
2023/06/10 00:02:07;;;;;;;8.65;6.78;;;21.50;99.90;;;;;;5092716;28;20303;-48
2023/06/10 00:04:33;;;;;;;8.60;6.38;;;21.40;99.90;;;;;;5092900;28;20177;-48
2023/06/10 00:06:59;;;;;;;9.48;7.10;;;21.20;99.90;;;;;;5092616;28;20166;-47
2023/06/10 00:09:25;;;;;;;8.55;6.80;;;21.20;99.90;;;;;;5092563;28;20169;-47
2023/06/10 00:11:51;;;;;;;8.02;6.47;;;21.30;99.90;;;;;;5092747;28;20173;-48
2023/06/10 00:14:16;;;;;;;10.93;6.72;;;21.20;99.90;;;;;;5092877;28;20162;-48
2023/06/10 00:16:44;;;;;;;8.93;7.32;;;21.20;99.90;;;;;;5092604;28;20293;-47
2023/06/10 00:19:13;;;;;;;8.48;6.63;;;20.90;99.90;;;;;;5092519;28;20208;-47
2023/06/10 00:21:40;;;;;;;10.23;5.82;;;21.20;99.90;;;;;;5092309;28;20651;-47
2023/06/10 00:24:11;;;;;;;11.82;6.65;;;21.20;99.90;;;;;;5092553;28;20261;-48
2023/06/10 00:26:40;;;;;;;8.93;6.65;;;21.20;99.90;;;;;;5092200;28;20208;-47
2023/06/10 00:29:06;;;;;;;9.32;6.50;;;21.10;99.90;;;;;;5092201;28;20162;-48
2023/06/10 00:31:34;;;;;;;8.13;7.25;;;20.80;99.90;;;;;;5092434;28;20169;-48
2023/06/10 00:33:59;;;;;;;9.95;7.28;;;21.30;99.90;;;;;;5092143;28;20240;-48
2023/06/10 00:36:25;;;;;;;10.60;7.55;;;21.20;99.90;;;;;;5092187;28;20318;-47
2023/06/10 00:38:50;;;;;;;8.32;7.35;;;21.20;99.90;;;;;;5091961;28;20197;-47
2023/06/10 00:41:16;;;;;;;7.28;6.63;;;21.10;99.90;;;;;;5092228;28;20172;-48
2023/06/10 00:43:41;;;;;;;8.80;6.95;;;20.80;99.90;;;;;;5091949;28;20169;-47
2023/06/10 00:46:07;;;;;;;8.88;7.95;;;20.50;99.90;;;;;;5091928;28;20197;-48
2023/06/10 00:48:33;;;;;;;10.27;7.97;;;20.70;99.90;;;;;;5091885;28;20521;-48
2023/06/10 00:51:00;;;;;;;7.35;6.65;;;20.70;99.90;;;;;;5091860;28;20624;-48
2023/06/10 00:53:26;;;;;;;8.02;7.22;;;20.60;99.90;;;;;;5092051;28;20177;-48
2023/06/10 00:55:52;;;;;;;7.93;6.95;;;20.70;99.90;;;;;;5091831;28;20161;-48
2023/06/10 00:58:18;;;;;;;9.57;6.93;;;20.50;99.90;;;;;;5091702;28;20655;-47
2023/06/10 01:00:45;;;;;;;8.35;7.47;;;20.50;99.90;;;;;;5092442;28;20197;-48
2023/06/10 01:03:11;;;;;;;9.38;7.47;;;20.10;99.90;;;;;;5091932;28;20169;-48
2023/06/10 01:05:38;;;;;;;7.85;7.13;;;20.40;99.90;;;;;;5091863;28;20594;-48
2023/06/10 01:08:25;;;;;;;10.65;7.40;;;20.40;99.90;;;;;;5091577;28;20224;-48
2023/06/10 01:11:00;;;;;;;7.45;6.45;;;20.10;99.90;;;;;;5091592;28;20168;-48
2023/06/10 01:13:28;;;;;;;13.20;7.80;;;20.10;99.90;;;;;;5091605;28;20161;-48
2023/06/10 01:15:55;;;;;;;11.52;7.20;;;19.80;99.90;;;;;;5091873;28;20244;-48
2023/06/10 01:18:21;;;;;;;8.85;7.95;;;20.20;99.90;;;;;;5091485;28;20740;-48
2023/06/10 01:20:48;;;;;;;7.65;6.80;;;;;;;;;;5091958;28;20252;-48
2023/06/10 01:23:15;;;;;;;8.45;7.35;;;20.20;99.90;;;;;;5091869;28;20708;-47
2023/06/10 01:25:55;;;;;;;9.40;7.55;;;20.10;99.90;;;;;;5091451;28;20245;-48
2023/06/10 01:28:23;;;;;;;10.63;8.10;;;20.10;99.90;;;;;;5091568;28;20172;-48
2023/06/10 01:31:13;;;;;;;11.40;8.32;;;20.20;99.90;;;;;;5091658;28;20532;-48
2023/06/10 01:33:51;;;;;;;10.95;8.40;;;20.10;99.90;;;;;;5076669;28;20557;-48
2023/06/10 01:36:18;;;;;;;8.75;7.88;;;20.20;99.90;;;;;;5091486;28;20633;-48
2023/06/10 01:38:46;;;;;;;12.68;7.63;;;20.30;99.90;;;;;;5091768;28;20209;-48
2023/06/10 01:41:15;;;;;;;11.43;7.43;;;20.40;99.90;;;;;;5091682;28;20173;-48
2023/06/10 01:43:43;;;;;;;14.18;7.50;;;19.90;99.90;;;;;;5073495;28;20528;-48
2023/06/10 01:46:09;;;;;;;12.13;7.63;;;20.30;99.90;;;;;;5091632;28;20188;-48
2023/06/10 01:48:35;;;;;;;9.77;7.45;;;19.80;99.90;;;;;;5091610;28;20636;-48
2023/06/10 01:51:00;;;;;;;8.77;7.38;;;19.80;99.90;;;;;;5091279;28;20287;-48
2023/06/10 01:53:26;;;;;;;10.52;7.57;;;19.60;99.90;;;;;;5093800;28;20251;-48
2023/06/10 01:55:51;;;;;;;12.25;7.53;;;19.80;99.90;;;;;;5095177;28;20172;-48
2023/06/10 01:58:17;;;;;;;15.73;7.15;;;;;;;;;;5094972;28;20672;-48
2023/06/10 02:00:43;;;;;;;13.18;7.18;;;19.70;99.90;;;;;;5095448;28;20192;-48
2023/06/10 02:03:09;;;;;;;11.93;7.38;;;19.50;99.90;;;;;;5094957;28;20158;-48
2023/06/10 02:05:34;;;;;;;9.70;7.28;;;19.50;99.90;;;;;;5095148;28;20269;-48
2023/06/10 02:08:00;;;;;;;11.35;7.90;;;19.60;99.90;;;;;;5094826;28;20221;-48
2023/06/10 02:10:26;;;;;;;11.77;6.78;;;19.70;99.90;;;;;;5094858;28;20168;-48
2023/06/10 02:12:52;;;;;;;13.10;7.20;;;19.70;99.90;;;;;;5094789;28;20211;-48
2023/06/10 02:15:17;;;;;;;9.95;6.55;;;19.60;99.90;;;;;;5094913;28;20381;-48
2023/06/10 02:17:44;;;;;;;8.90;6.80;;;19.50;99.90;;;;;;5095114;28;20193;-48
2023/06/10 02:20:10;;;;;;;10.70;7.03;;;19.60;99.90;;;;;;5095119;28;20214;-48
2023/06/10 02:22:36;;;;;;;9.93;7.13;;;;;;;;;;5094854;28;20250;-48
2023/06/10 02:25:03;;;;;;;14.18;8.02;;;19.60;99.90;;;;;;5094601;28;20244;-48
2023/06/10 02:27:30;;;;;;;11.32;7.30;;;19.40;99.90;;;;;;5094484;28;20625;-48
2023/06/10 02:29:56;;;;;;;12.52;7.40;;;19.30;99.90;;;;;;5094724;28;20180;-48
2023/06/10 02:32:22;;;;;;;11.82;7.60;;;19.50;99.90;;;;;;5094401;28;20162;-48
2023/06/10 02:34:48;;;;;;;9.25;7.03;;;19.50;99.90;;;;;;5094523;28;20188;-48
2023/06/10 02:37:15;;;;;;;11.02;6.53;;;19.50;99.90;;;;;;5095023;28;20169;-48
2023/06/10 02:39:40;;;;;;;10.30;7.40;;;19.50;99.90;;;;;;5094286;28;20197;-48
2023/06/10 02:42:06;;;;;;;10.75;7.30;;;19.30;99.90;;;;;;5094310;28;20529;-48
2023/06/10 02:44:32;;;;;;;15.15;7.38;;;19.20;99.90;;;;;;5094286;28;20244;-48
2023/06/10 02:46:57;;;;;;;13.40;7.15;;;19.40;99.90;;;;;;5094260;28;20173;-48
2023/06/10 02:49:23;;;;;;;10.60;7.72;;;19.40;99.90;;;;;;5094409;28;20259;-48
2023/06/10 02:51:53;;;;;;;13.30;7.30;;;19.20;99.90;;;;;;5094078;28;20181;-48
2023/06/10 02:54:22;;;;;;;9.27;7.47;;;19.40;99.90;;;;;;5094001;28;20172;-48
2023/06/10 02:56:48;;;;;;;9.50;7.57;;;19.40;99.90;;;;;;5094008;28;20170;-48
2023/06/10 02:59:14;;;;;;;10.82;7.88;;;19.30;99.90;;;;;;5094218;28;20258;-48
2023/06/10 03:01:40;;;;;;;12.77;8.18;;;19.10;99.90;;;;;;5093877;28;20757;-48
2023/06/10 03:04:07;;;;;;;12.98;7.78;;;19.60;99.90;;;;;;5093719;28;20177;-48
2023/06/10 03:06:33;;;;;;;8.43;7.50;;;19.10;99.90;;;;;;5094012;28;20165;-48
2023/06/10 03:09:00;;;;;;;8.70;7.80;;;19.00;99.90;;;;;;5093585;28;20604;-48
2023/06/10 03:11:25;;;;;;;13.07;8.85;;;18.60;99.90;;;;;;5093719;28;20169;-48
2023/06/10 03:13:53;;;;;;;10.38;8.32;;;18.70;99.90;;;;;;5093645;28;20218;-48
2023/06/10 03:16:19;;;;;;;12.25;8.50;;;19.00;99.90;;;;;;5093895;28;20184;-48
2023/06/10 03:18:45;;;;;;;9.05;7.95;;;19.10;99.90;;;;;;5075760;28;20209;-48
2023/06/10 03:21:11;;;;;;;12.38;8.13;;;19.20;99.90;;;;;;5093493;28;20530;-48
2023/06/10 03:23:36;;;;;;;9.27;8.38;;;19.00;99.90;;;;;;5093568;28;20177;-48
2023/06/10 03:26:02;;;;;;;12.63;9.27;;;18.80;99.90;;;;;;5093363;28;20174;-48
2023/06/10 03:28:28;;;;;;;11.25;8.98;;;19.00;99.90;;;;;;5093587;28;20248;-48
2023/06/10 03:30:53;;;;;;;10.43;8.45;;;18.90;99.90;;;;;;5093327;28;20163;-48
2023/06/10 03:33:19;;;;;;;10.70;8.63;;;18.90;99.90;;;;;;5093221;28;20204;-48
2023/06/10 03:35:45;;;;;;;10.73;8.07;;;19.00;99.90;;;;;;5093872;28;20173;-48
2023/06/10 03:38:11;;;;;;;12.35;8.50;;;18.90;99.90;;;;;;5093467;28;20731;-48
2023/06/10 03:40:36;;;;;;;13.73;8.98;;;18.80;99.90;;;;;;5093131;28;20238;-48
2023/06/10 03:43:02;;;;;;;11.63;8.68;;;18.90;99.90;;;;;;5093105;28;20694;-47
2023/06/10 03:45:28;;;;;;;16.10;8.77;;;;;;;;;;5092997;28;20170;-47
2023/06/10 03:47:53;;;;;;;12.05;8.43;;;18.90;99.90;;;;;;5093078;28;20227;-48
2023/06/10 03:50:19;;;;;;;11.95;8.93;;;18.50;99.90;;;;;;5092982;28;20677;-48
2023/06/10 03:52:46;;;;;;;10.27;8.05;;;18.90;99.90;;;;;;5093366;28;20538;-48
2023/06/10 03:55:13;;;;;;;9.95;8.93;;;18.60;99.90;;;;;;5093494;28;20169;-48
2023/06/10 03:57:39;;;;;;;16.92;9.38;;;18.90;99.90;;;;;;5092782;28;20161;-48
2023/06/10 04:00:11;;;;;;;13.85;8.45;;;18.90;99.90;;;;;;5092825;28;20170;-47
2023/06/10 04:02:36;;;;;;;14.88;8.48;;;19.30;99.90;;;;;;5092734;28;20313;-48
2023/06/10 04:05:02;;;;;;;14.23;8.50;;;19.10;99.90;;;;;;5093062;28;20282;-47
2023/06/10 04:07:28;;;;;;;12.73;7.78;;;19.00;99.90;;;;;;5092686;28;20245;-48
2023/06/10 04:09:54;;;;;;;14.85;8.38;;;19.00;99.90;;;;;;5092574;28;20644;-48
2023/06/10 04:12:19;;;;;;;10.48;8.23;;;19.30;99.90;;;;;;5092595;28;20625;-48
2023/06/10 04:14:45;;;;;;;12.32;9.27;;;18.90;99.90;;;;;;5074314;28;20173;-47
2023/06/10 04:17:10;;;;;;;13.23;9.35;;;19.20;99.90;;;;;;5092109;28;20264;-48
2023/06/10 04:19:36;;;;;;;14.80;9.05;;;19.40;99.90;;;;;;5092251;28;20603;-47
2023/06/10 04:22:03;;;;;;;11.02;9.23;;;19.00;99.90;;;;;;5092381;28;20166;-47
2023/06/10 04:24:29;;;;;;;14.55;8.93;;;19.10;99.90;;;;;;5092540;28;20177;-47
2023/06/10 04:26:54;;;;;;;13.50;8.70;;;19.10;99.90;;;;;;5092279;28;20226;-47
2023/06/10 04:29:20;;;;;;;16.00;8.45;;;;;;;;;;5092194;28;20161;-48
2023/06/10 04:31:46;;;;;;;12.85;8.43;;;19.20;99.90;;;;;;5092706;28;20256;-48
2023/06/10 04:34:12;;;;;;;14.32;9.07;;;19.20;99.90;;;;;;5092849;28;20212;-48
2023/06/10 04:36:38;;;;;;;11.23;8.10;;;19.50;99.90;;;;;;5092105;28;20572;-48
2023/06/10 04:39:05;;;;;;;14.07;9.05;;;19.50;99.90;;;;;;5092031;28;20200;-48
2023/06/10 04:41:31;;;;;;;16.13;8.82;;;19.70;99.90;;;;;;5091956;28;20219;-48
2023/06/10 04:43:57;;;;;;;12.23;8.57;;;20.20;99.90;;;;;;5092068;28;20182;-48
2023/06/10 04:46:23;;;;;;;10.45;9.30;;;20.20;99.90;;;;;;5092182;28;20165;-48
2023/06/10 04:48:49;;;;;;;11.13;9.50;;;20.60;99.90;;;;;;5092117;28;20177;-48
2023/06/10 04:51:15;;;;;;;11.82;7.90;;;20.70;99.90;;;;;;5092281;28;20678;-48
2023/06/10 04:53:41;;;;;;;9.63;8.45;;;20.80;99.90;;;;;;5092139;28;20264;-48
2023/06/10 04:56:07;;;;;;;12.18;8.93;;;20.90;99.90;;;;;;5091800;28;20244;-48
2023/06/10 04:58:33;;;;;;;12.85;8.65;;;20.90;99.90;;;;;;5091777;28;20687;-48
2023/06/10 05:00:59;;;;;;;9.80;8.88;;;21.00;99.90;;;;;;5092051;28;20174;-48
2023/06/10 05:03:25;;;;;;;12.07;8.35;;;21.30;99.90;;;;;;5091822;28;20185;-48
2023/06/10 05:05:51;;;;;;;10.50;7.88;;;21.00;99.90;;;;;;5091808;28;20256;-48
2023/06/10 05:08:16;;;;;;;12.20;9.05;;;21.40;99.90;;;;;;5091532;28;20229;-48
2023/06/10 05:10:42;;;;;;;10.57;8.05;;;21.20;99.90;;;;;;5091567;28;20646;-48
2023/06/10 05:13:07;;;;;;;11.60;9.00;;;21.50;99.90;;;;;;5091617;28;20219;-48
2023/06/10 05:15:33;;;;;;;9.90;8.50;;;21.70;99.90;;;;;;5091589;28;20196;-48
2023/06/10 05:17:59;;;;;;;11.90;9.02;;;21.40;99.90;;;;;;5091768;28;20232;-48
2023/06/10 05:20:25;;;;;;;9.60;8.65;;;21.70;99.90;;;;;;5091831;28;20251;-48
2023/06/10 05:22:51;;;;;;;12.00;8.27;;;22.00;99.90;;;;;;5091750;28;20226;-48
2023/06/10 05:25:16;;;;;;;9.07;8.18;;;21.80;99.90;;;;;;5091522;28;20185;-48
2023/06/10 05:27:42;;;;;;;13.65;8.63;;;22.10;99.90;;;;;;5094763;28;20157;-48
2023/06/10 05:30:10;;;;;;;11.50;9.43;;;22.20;99.90;;;;;;5095922;28;20246;-48
2023/06/10 05:32:35;;;;;;;12.73;8.43;;;22.20;99.90;;;;;;5095758;28;20165;-48
2023/06/10 05:35:01;;;;;;;13.13;9.13;;;22.10;99.90;;;;;;5095605;28;20184;-48
2023/06/10 05:37:27;;;;;;;11.27;8.43;;;;;;;;;;5093304;28;20260;-47
2023/06/10 05:39:53;;;;;;;10.88;8.45;;;;;;;;;;5093755;28;20196;-46
2023/06/10 05:42:19;;;;;;;9.80;8.02;;;;;;;;;;5093693;28;20637;-48
2023/06/10 05:44:45;;;;;;;8.95;8.07;;;;;;;;;;5093905;28;20162;-48
2023/06/10 05:47:11;;;;;;;12.45;8.57;;;22.60;99.90;;;;;;5093875;28;20229;-48
2023/06/10 05:49:36;;;;;;;10.63;8.30;;;22.80;99.90;;;;;;5093382;28;20177;-48
2023/06/10 05:52:02;;;;;;;10.15;8.55;;;22.80;99.90;;;;;;5093056;28;20165;-48
2023/06/10 05:54:28;;;;;;;8.50;7.53;;;;;;;;;;5093245;28;20173;-48
2023/06/10 05:56:53;;;;;;;11.38;7.75;;;22.90;99.90;;;;;;5093355;28;20169;-48
2023/06/10 05:59:19;;;;;;;10.20;8.02;;;;;;;;;;5093166;28;20295;-48
2023/06/10 06:01:45;;;;;;;9.20;7.90;;;22.70;99.90;;;;;;5093861;28;20177;-48
2023/06/10 06:04:10;;;;;;;9.23;7.82;;;23.20;99.90;;;;;;5093110;28;20169;-48
2023/06/10 06:06:39;;;;;;;10.23;7.75;;;22.90;99.90;;;;;;5093386;28;20177;-48
2023/06/10 06:09:05;;;;;;;10.23;7.65;;;23.00;99.90;;;;;;5092927;28;20225;-49
2023/06/10 06:11:30;;;;;;;10.23;8.07;;;22.70;99.90;;;;;;5093427;28;20218;-49
2023/06/10 06:13:56;;;;;;;9.15;8.10;;;22.90;99.90;;;;;;5093081;28;20572;-48
2023/06/10 06:16:21;;;;;;;10.63;8.55;;;22.50;99.90;;;;;;5093174;28;20172;-48
2023/06/10 06:18:47;;;;;;;9.13;7.95;;;22.90;99.90;;;;;;5092782;28;20734;-47
2023/06/10 06:21:13;;;;;;;8.25;7.30;;;;;;;;;;5093240;28;20849;-49
2023/06/10 06:23:39;;;;;;;8.02;7.20;;;;;;;;;;5092486;28;20169;-47
2023/06/10 06:26:05;;;;;;;10.15;6.78;;;;;;;;;;5092573;28;20212;-49
2023/06/10 06:28:31;;;;;;;9.98;6.65;;;23.10;99.90;;;;;;5092742;28;20173;-50
2023/06/10 06:30:57;;;;;;;8.73;7.25;;;22.90;99.90;;;;;;5088604;28;20257;-49
2023/06/10 06:33:22;;;;;;;13.18;7.00;;;23.40;99.90;;;;;;5072180;28;20170;-50
2023/06/10 06:35:48;;;;;;;8.00;7.20;;;23.50;99.90;;;;;;5072436;28;20166;-49
2023/06/10 06:38:13;;;;;;;8.10;6.90;;;23.50;99.90;;;;;;5071473;28;20214;-48
2023/06/10 06:40:39;;;;;;;7.85;7.15;;;23.30;99.90;;;;;;5072251;28;20167;-49
2023/06/10 06:43:05;;;;;;;9.70;7.15;;;;;;;;;;5072212;28;20206;-49
2023/06/10 06:45:30;;;;;;;9.98;7.07;;;23.70;99.90;;;;;;5072136;28;20633;-49
2023/06/10 06:47:56;;;;;;;7.32;6.63;;;;;;;;;;5072124;28;20166;-49
2023/06/10 06:50:22;;;;;;;12.23;7.68;;;;;;;;;;5072118;28;20174;-49
2023/06/10 06:52:48;;;;;;;7.05;6.35;;;23.90;99.90;;;;;;5072063;28;20173;-49
2023/06/10 06:55:13;;;;;;;9.25;6.40;;;23.60;99.90;;;;;;5072374;28;20235;-49
2023/06/10 06:57:39;;;;;;;7.05;5.68;;;23.90;99.90;;;;;;5071872;28;20174;-48
2023/06/10 07:00:05;;;;;;;6.82;6.13;;;24.00;99.90;;;;;;5071814;28;20178;-49
2023/06/10 07:02:32;;;;;;;6.60;5.95;;;24.10;99.90;;;;;;5071948;28;20641;-49
2023/06/10 07:04:59;;;;;;;8.35;5.75;;;;;;;;;;5071898;28;20322;-49
2023/06/10 07:07:24;;;;;;;6.57;5.70;;;24.30;99.90;;;;;;5071650;28;20347;-48
2023/06/10 07:09:50;;;;;;;7.95;6.25;;;24.30;99.90;;;;;;5071657;28;20245;-49
2023/06/10 07:12:17;;;;;;;6.40;5.72;;;;;;;;;;5071678;28;20170;-49
2023/06/10 07:14:43;;;;;;;7.93;6.30;;;;;;;;;;5072244;28;20540;-49
2023/06/10 07:17:09;;;;;;;5.88;5.38;;;;;;;;;;5080995;28;20177;-49
2023/06/10 07:19:35;;;;;;;9.23;5.72;;;24.90;99.90;;;;;;5091995;28;20209;-49
2023/06/10 07:22:00;;;;;;;7.38;5.85;;;24.80;99.90;;;;;;5091644;28;20165;-49
2023/06/10 07:24:26;;;;;;;8.27;6.43;;;24.80;99.90;;;;;;5091825;28;20197;-49
2023/06/10 07:26:51;;;;;;;10.02;6.40;;;25.00;99.90;;;;;;5091613;28;20173;-49
2023/06/10 07:29:17;;;;;;;6.22;5.40;;;;;;;;;;5091818;28;20214;-49
2023/06/10 07:31:43;;;;;;;8.82;6.45;;;;;;;;;;5091901;28;20758;-49
2023/06/10 07:34:09;;;;;;;8.73;6.38;;;25.20;99.90;;;;;;5091228;28;20161;-49
2023/06/10 07:36:34;;;;;;;8.40;6.18;;;25.10;99.90;;;;;;5091149;28;21119;-49
2023/06/10 07:39:00;;;;;;;6.57;5.30;;;25.30;99.90;;;;;;5091541;28;20201;-49
2023/06/10 07:41:26;;;;;;;6.80;6.00;;;25.30;99.90;;;;;;5091598;28;20168;-49
2023/06/10 07:43:54;;;;;;;7.28;6.57;;;25.20;99.90;;;;;;5091503;28;20701;-49
2023/06/10 07:46:21;;;;;;;7.72;5.90;;;25.10;99.90;;;;;;5091196;28;20157;-49
2023/06/10 07:48:48;;;;;;;6.97;6.28;;;25.40;99.90;;;;;;5091137;28;20192;-49
2023/06/10 07:51:15;;;;;;;8.85;6.00;;;25.50;99.90;;;;;;5090446;28;20161;-50
2023/06/10 07:53:41;;;;;;;9.02;6.13;;;25.60;99.90;;;;;;5091527;28;20175;-50
2023/06/10 07:56:07;;;;;;;7.53;6.63;;;25.60;99.90;;;;;;5090997;28;20169;-50
2023/06/10 07:58:32;;;;;;;9.27;5.75;;;;;;;;;;5090781;28;20566;-50
2023/06/10 08:00:58;;;;;;;7.57;6.47;;;25.90;99.90;;;;;;5090940;28;20319;-50
2023/06/10 08:03:24;;;;;;;5.88;5.35;;;25.90;99.90;;;;;;5090819;28;20161;-49
2023/06/10 08:05:49;;;;;;;7.72;5.07;;;25.80;99.90;;;;;;5090880;28;20577;-49
2023/06/10 08:08:15;;;;;;;6.25;5.13;;;;;;;;;;5090475;28;20227;-49
2023/06/10 08:10:41;;;;;;;6.10;5.13;;;;;;;;;;5091148;28;20223;-50
2023/06/10 08:13:08;;;;;;;5.90;5.40;;;26.10;99.90;;;;;;5090701;28;20183;-50
2023/06/10 08:15:34;;;;;;;6.85;5.55;;;;;;;;;;5090496;28;20161;-49
2023/06/10 08:17:59;;;;;;;6.93;5.78;;;26.10;99.90;;;;;;5090574;28;20219;-49
2023/06/10 08:20:25;;;;;;;6.93;6.07;;;;;;;;;;5090653;28;20640;-49
2023/06/10 08:22:51;;;;;;;10.77;5.90;;;;;;;;;;5072316;28;20175;-49
2023/06/10 08:25:17;;;;;;;7.47;6.45;;;26.50;99.90;;;;;;5090500;28;20164;-49
2023/06/10 08:27:43;;;;;;;7.80;6.43;;;;;;;;;;5090845;28;20164;-49
2023/06/10 08:30:10;;;;;;;8.50;6.93;;;26.80;99.90;;;;;;5090283;28;20192;-49
2023/06/10 08:32:36;;;;;;;7.47;5.60;;;27.00;99.90;;;;;;5089999;28;20169;-49
2023/06/10 08:35:02;;;;;;;7.03;6.43;;;26.60;99.90;;;;;;5090452;28;20169;-49
2023/06/10 08:37:28;;;;;;;8.30;6.07;;;26.80;99.90;;;;;;5090277;28;20251;-49
2023/06/10 08:39:54;;;;;;;9.23;6.28;;;26.40;99.90;;;;;;5072431;28;20789;-49
2023/06/10 08:42:26;;;;;;;7.95;6.03;;;26.70;99.90;;;;;;5090007;28;20172;-49
2023/06/10 08:44:58;;;;;;;10.60;6.20;;;26.70;99.90;;;;;;5090101;28;20241;-49
2023/06/10 08:47:25;;;;;;;11.02;6.38;;;26.90;99.90;;;;;;5090247;28;20663;-49
2023/06/10 08:49:52;;;;;;;7.80;6.10;;;27.10;99.90;;;;;;5090291;28;20176;-49
2023/06/10 08:52:21;;;;;;;8.73;6.25;;;27.10;99.90;;;;;;5090292;28;20647;-49
2023/06/10 08:55:03;;;;;;;6.75;6.05;;;27.30;99.90;;;;;;5089963;28;20165;-49
2023/06/10 08:57:30;;;;;;;8.35;6.03;;;27.20;99.90;;;;;;5090584;28;20585;-48
2023/06/10 08:59:57;;;;;;;6.82;6.13;;;27.30;99.90;;;;;;5083765;28;20292;-48
2023/06/10 09:02:27;;;;;;;9.82;6.32;;;27.30;99.90;;;;;;5081452;28;20261;-48
2023/06/10 09:04:55;;;;;;;8.98;6.68;;;27.40;99.90;;;;;;5089548;28;20164;-49
2023/06/10 09:07:21;;;;;;;7.68;6.15;;;27.30;99.90;;;;;;5089630;28;20213;-49
2023/06/10 09:09:49;;;;;;;9.02;6.65;;;27.50;99.90;;;;;;5089885;28;20187;-49
2023/06/10 09:12:15;;;;;;;6.57;5.97;;;27.60;99.90;;;;;;5089954;28;20165;-49
2023/06/10 09:14:42;;;;;;;7.88;6.50;;;27.50;99.90;;;;;;5090251;28;20264;-49
2023/06/10 09:17:08;;;;;;;11.18;5.95;;;27.80;99.90;;;;;;5071787;28;20168;-49
2023/06/10 09:19:35;;;;;;;6.63;5.85;;;28.00;99.90;;;;;;5089708;28;20196;-49
2023/06/10 09:22:00;;;;;;;9.02;6.30;;;28.00;98.70;;;;;;5089792;28;20173;-49
2023/06/10 09:24:26;;;;;;;8.73;7.03;;;28.00;98.30;;;;;;5089995;28;20264;-49
2023/06/10 09:27:06;;;;;;;8.68;6.85;;;28.10;98.40;;;;;;5090059;28;20169;-49
2023/06/10 09:29:53;;;;;;;9.30;8.02;;;28.30;99.60;;;;;;5089523;28;20184;-49
2023/06/10 09:32:19;;;;;;;9.15;7.00;;;28.50;96.90;;;;;;5089573;28;20171;-49
2023/06/10 09:34:46;;;;;;;10.10;7.90;;;28.50;96.40;;;;;;5071609;28;20211;-49
2023/06/10 09:37:13;;;;;;;16.88;12.13;;;;;;;;;;5089716;28;20663;-49
2023/06/10 09:39:39;;;;;;;14.70;10.65;;;28.70;96.20;;;;;;5089443;28;20232;-49
2023/06/10 09:42:18;;;;;;;11.30;8.38;;;28.70;95.40;;;;;;5089637;28;20226;-50
2023/06/10 09:44:51;;;;;;;15.75;10.00;;;28.80;94.60;;;;;;5089964;28;20164;-50
2023/06/10 09:47:21;;;;;;;9.00;7.80;;;28.80;95.20;;;;;;5071631;28;20173;-49
2023/06/10 09:49:46;;;;;;;21.20;13.65;;;28.80;94.90;;;;;;5089221;28;20173;-50
2023/06/10 09:52:12;;;;;;;16.25;11.07;;;29.00;95.20;;;;;;5089787;28;20183;-50
2023/06/10 09:54:37;;;;;;;11.63;7.18;;;29.00;95.00;;;;;;5089378;28;20252;-50
2023/06/10 09:57:09;;;;;;;11.15;9.05;;;29.20;95.30;;;;;;5089554;28;20169;-50
2023/06/10 09:59:37;;;;;;;8.95;6.75;;;29.20;94.10;;;;;;5089114;28;20630;-50
2023/06/10 10:02:04;;;;;;;33.95;19.63;;;29.30;94.00;;;;;;5089207;28;20194;-51
2023/06/10 10:04:30;;;;;;;9.73;7.68;;;;;;;;;;5089265;28;20172;-50
2023/06/10 10:06:56;;;;;;;16.10;10.43;;;;;;;;;;5089120;28;20225;-50
2023/06/10 10:09:21;;;;;;;18.80;12.82;;;29.70;92.80;;;;;;5071215;28;20271;-50
2023/06/10 10:11:48;;;;;;;8.93;6.88;;;29.30;92.60;;;;;;5089060;28;20168;-50
2023/06/10 10:14:16;;;;;;;11.80;9.90;;;29.60;93.40;;;;;;5091562;28;20680;-50
2023/06/10 10:16:42;;;;;;;8.05;7.07;;;29.70;92.80;;;;;;5093300;28;20174;-50
2023/06/10 10:19:15;;;;;;;9.05;6.82;;;29.20;92.30;;;;;;5092886;28;20241;-50
2023/06/10 10:21:58;;;;;;;8.57;6.50;;;29.40;91.90;;;;;;5093223;28;20172;-50
2023/06/10 10:24:33;;;;;;;10.73;6.20;;;29.30;91.40;;;;;;5092979;28;20199;-50
2023/06/10 10:27:03;;;;;;;6.97;6.28;;;29.60;91.70;;;;;;5092867;28;20241;-50
2023/06/10 10:29:38;;;;;;;10.13;6.65;;;29.60;90.90;;;;;;5092760;28;20518;-51
2023/06/10 10:32:06;;;;;;;10.10;6.43;;;30.10;90.80;;;;;;5092701;28;20164;-50
2023/06/10 10:35:08;;;;;;;7.88;6.20;;;29.70;91.00;;;;;;5092623;28;20165;-51
2023/06/10 10:37:34;;;;;;;7.13;6.43;;;29.90;91.00;;;;;;5085455;28;20180;-51
2023/06/10 10:40:01;;;;;;;7.68;6.15;;;29.80;90.40;;;;;;5092467;28;20204;-50
2023/06/10 10:42:28;;;;;;;9.32;8.40;;;29.90;89.70;;;;;;5092967;28;20165;-51
2023/06/10 10:44:54;;;;;;;7.40;6.70;;;30.10;89.70;;;;;;5092392;28;20244;-50
2023/06/10 10:47:30;;;;;;;9.20;7.03;;;30.30;89.70;;;;;;5092507;28;20165;-52
2023/06/10 10:49:59;;;;;;;13.05;11.65;;;;;;;;;;5092100;28;20643;-51
2023/06/10 10:52:27;;;;;;;26.92;19.42;;;30.90;90.40;;;;;;5092380;28;20636;-50
2023/06/10 10:54:53;;;;;;;9.07;7.40;;;30.50;90.10;;;;;;5074541;28;20699;-50
2023/06/10 10:57:23;;;;;;;9.02;7.47;;;30.70;90.60;;;;;;5092337;28;20757;-50
2023/06/10 10:59:49;;;;;;;10.48;7.25;;;30.60;88.90;;;;;;5091971;28;20273;-49
2023/06/10 11:02:31;;;;;;;9.43;6.78;;;30.90;89.40;;;;;;5092015;28;20168;-50
2023/06/10 11:04:57;;;;;;;8.52;6.25;;;30.90;86.70;;;;;;5091856;28;20188;-50
2023/06/10 11:07:25;;;;;;;7.30;6.63;;;30.70;86.40;;;;;;5092013;28;20209;-50
2023/06/10 11:10:02;;;;;;;8.57;7.13;;;30.70;87.70;;;;;;5091962;28;20160;-50
2023/06/10 11:12:46;;;;;;;8.82;6.72;;;31.00;88.90;;;;;;5092239;28;20172;-51
2023/06/10 11:15:12;;;;;;;9.80;7.15;;;31.00;86.70;;;;;;5092207;28;20164;-50
2023/06/10 11:17:38;;;;;;;7.15;6.45;;;;;;;;;;5091778;28;20728;-50
2023/06/10 11:20:05;;;;;;;10.63;6.30;;;30.50;86.10;;;;;;5091689;28;20671;-50
2023/06/10 11:22:30;;;;;;;8.93;6.47;;;30.40;86.20;;;;;;5091786;28;20161;-50
2023/06/10 11:24:58;;;;;;;9.82;8.35;;;30.40;88.20;;;;;;5091441;28;20642;-51
2023/06/10 11:27:24;;;;;;;11.35;6.80;;;29.90;86.50;;;;;;5091312;28;20218;-51
2023/06/10 11:30:05;;;;;;;14.13;6.78;;;30.00;87.90;;;;;;5091381;28;20263;-50
2023/06/10 11:32:33;;;;;;;12.60;6.45;;;29.90;87.70;;;;;;5091769;28;20589;-50
2023/06/10 11:34:59;;;;;;;8.52;6.90;;;;;;;;;;5091456;28;20172;-50
2023/06/10 11:37:25;;;;;;;9.95;7.03;;;29.70;89.20;;;;;;5091721;28;20263;-49
2023/06/10 11:39:56;;;;;;;6.78;6.10;;;29.20;89.90;;;;;;5073334;28;20657;-49
2023/06/10 11:42:22;;;;;;;11.07;6.80;;;29.20;90.80;;;;;;5091429;28;20209;-49
2023/06/10 11:44:52;;;;;;;9.20;6.60;;;29.10;90.70;;;;;;5091343;28;20176;-49
2023/06/10 11:47:19;;;;;;;11.52;6.82;;;28.90;91.00;;;;;;5091128;28;20164;-50
2023/06/10 11:49:45;;;;;;;8.90;7.30;;;;;;;;;;5091594;28;20193;-50
2023/06/10 11:52:11;;;;;;;7.38;6.68;;;29.10;90.80;;;;;;5073287;28;20539;-49
2023/06/10 11:54:37;;;;;;;9.23;7.53;;;29.00;90.40;;;;;;5090933;28;20165;-50
2023/06/10 11:57:03;;;;;;;8.55;6.93;;;29.00;90.10;;;;;;5072851;28;20183;-50
2023/06/10 11:59:30;;;;;;;8.77;6.88;;;29.00;90.10;;;;;;5090776;28;20208;-50
2023/06/10 12:01:56;;;;;;;8.60;6.93;;;29.20;91.20;;;;;;5091241;28;20226;-50
2023/06/10 12:04:22;;;;;;;7.45;6.70;;;;;;;;;;5090852;28;20161;-49
2023/06/10 12:06:52;;;;;;;11.23;6.45;;;29.40;91.50;;;;;;5090686;28;20171;-50
2023/06/10 12:09:18;;;;;;;7.85;7.05;;;;;;;;;;5090852;28;20197;-50
2023/06/10 12:11:43;;;;;;;9.13;7.25;;;29.50;91.70;;;;;;5090832;28;20254;-50
2023/06/10 12:14:10;;;;;;;9.63;6.63;;;29.70;91.80;;;;;;5090618;28;20175;-50
2023/06/10 12:16:35;;;;;;;8.50;6.90;;;29.90;92.60;;;;;;5090650;28;20639;-50
2023/06/10 12:19:05;;;;;;;9.25;6.72;;;30.00;91.50;;;;;;5090596;28;20232;-50
2023/06/10 12:21:33;;;;;;;10.60;7.15;;;29.80;92.90;;;;;;5090356;28;20179;-50
2023/06/10 12:24:02;;;;;;;9.13;7.38;;;29.50;91.30;;;;;;5090438;28;20234;-50
2023/06/10 12:26:36;;;;;;;8.05;6.20;;;29.90;90.40;;;;;;5090445;28;20169;-50
2023/06/10 12:29:11;;;;;;;8.35;6.57;;;30.20;90.40;;;;;;5090403;28;20168;-50
2023/06/10 12:31:57;;;;;;;8.13;6.30;;;30.30;89.40;;;;;;5090342;28;20245;-50
2023/06/10 12:34:36;;;;;;;8.23;6.32;;;30.20;90.10;;;;;;5090403;28;20164;-50
2023/06/10 12:37:03;;;;;;;6.72;6.13;;;30.20;87.90;;;;;;5090054;28;20173;-50
2023/06/10 12:39:33;;;;;;;8.98;6.43;;;30.40;88.00;;;;;;5090513;28;20235;-50
2023/06/10 12:41:59;;;;;;;8.00;6.50;;;;;;;;;;5090116;28;20644;-49
2023/06/10 12:44:32;;;;;;;7.50;5.93;;;30.50;87.30;;;;;;5090158;28;20608;-50
2023/06/10 12:46:58;;;;;;;6.72;6.10;;;30.40;89.80;;;;;;5090288;28;20168;-49
2023/06/10 12:49:26;;;;;;;9.43;6.30;;;30.20;88.20;;;;;;5090337;28;20179;-50
2023/06/10 12:51:52;;;;;;;9.95;6.65;;;30.60;88.00;;;;;;5089996;28;20679;-50
2023/06/10 12:54:17;;;;;;;7.07;5.97;;;31.10;89.00;;;;;;5090086;28;20171;-50
2023/06/10 12:56:43;;;;;;;7.28;6.18;;;;;;;;;;5072486;28;20165;-50